sensor_id;sensor_type;location;lat;lon;timestamp;temperature;humidity
16635;DHT22;8431;52.458;9.998;2023-11-19T00:00:20;5.80;99.90
16635;DHT22;8431;52.458;9.998;2023-11-19T00:02:47;5.80;99.90
16635;DHT22;8431;52.458;9.998;2023-11-19T00:05:17;5.80;99.90
16635;DHT22;8431;52.458;9.998;2023-11-19T00:07:47;5.80;99.90
16635;DHT22;8431;52.458;9.998;2023-11-19T00:10:17;5.80;99.90
16635;DHT22;8431;52.458;9.998;2023-11-19T00:12:47;5.80;99.90
16635;DHT22;8431;52.458;9.998;2023-11-19T00:15:14;5.90;99.90
16635;DHT22;8431;52.458;9.998;2023-11-19T00:17:45;5.90;99.90
16635;DHT22;8431;52.458;9.998;2023-11-19T00:20:12;5.90;99.90
16635;DHT22;8431;52.458;9.998;2023-11-19T00:22:39;5.90;99.90
16635;DHT22;8431;52.458;9.998;2023-11-19T00:25:07;5.90;99.90
16635;DHT22;8431;52.458;9.998;2023-11-19T00:27:34;5.90;99.90
16635;DHT22;8431;52.458;9.998;2023-11-19T00:30:05;6.00;99.90
16635;DHT22;8431;52.458;9.998;2023-11-19T00:32:36;6.00;99.90
16635;DHT22;8431;52.458;9.998;2023-11-19T00:35:14;6.00;99.90
16635;DHT22;8431;52.458;9.998;2023-11-19T00:37:41;6.00;99.90
16635;DHT22;8431;52.458;9.998;2023-11-19T00:40:15;6.10;99.90
16635;DHT22;8431;52.458;9.998;2023-11-19T00:42:43;6.10;99.90
16635;DHT22;8431;52.458;9.998;2023-11-19T00:45:10;6.10;99.90
16635;DHT22;8431;52.458;9.998;2023-11-19T00:47:38;6.10;99.90
16635;DHT22;8431;52.458;9.998;2023-11-19T00:50:08;6.20;99.90
16635;DHT22;8431;52.458;9.998;2023-11-19T00:52:38;6.20;99.90
16635;DHT22;8431;52.458;9.998;2023-11-19T00:55:06;6.20;99.90
16635;DHT22;8431;52.458;9.998;2023-11-19T00:57:33;6.20;99.90
16635;DHT22;8431;52.458;9.998;2023-11-19T01:00:01;6.20;99.90
16635;DHT22;8431;52.458;9.998;2023-11-19T01:02:36;6.30;99.90
16635;DHT22;8431;52.458;9.998;2023-11-19T01:05:04;6.30;99.90
16635;DHT22;8431;52.458;9.998;2023-11-19T01:07:32;6.30;99.90
16635;DHT22;8431;52.458;9.998;2023-11-19T01:10:04;6.30;99.90
16635;DHT22;8431;52.458;9.998;2023-11-19T01:12:31;6.30;99.90
16635;DHT22;8431;52.458;9.998;2023-11-19T01:14:58;6.40;99.90
16635;DHT22;8431;52.458;9.998;2023-11-19T01:17:25;6.40;99.90
16635;DHT22;8431;52.458;9.998;2023-11-19T01:19:55;6.40;99.90
16635;DHT22;8431;52.458;9.998;2023-11-19T01:22:22;6.50;99.90
16635;DHT22;8431;52.458;9.998;2023-11-19T01:24:51;6.50;99.90
16635;DHT22;8431;52.458;9.998;2023-11-19T01:27:21;6.60;99.90
16635;DHT22;8431;52.458;9.998;2023-11-19T01:29:48;6.60;99.90
16635;DHT22;8431;52.458;9.998;2023-11-19T01:32:17;6.70;99.90
16635;DHT22;8431;52.458;9.998;2023-11-19T01:34:44;6.80;99.90
16635;DHT22;8431;52.458;9.998;2023-11-19T01:37:14;6.90;99.90
16635;DHT22;8431;52.458;9.998;2023-11-19T01:39:44;6.90;99.90
16635;DHT22;8431;52.458;9.998;2023-11-19T01:42:12;6.90;99.90
16635;DHT22;8431;52.458;9.998;2023-11-19T01:44:39;6.90;99.90
16635;DHT22;8431;52.458;9.998;2023-11-19T01:47:06;7.00;99.90
16635;DHT22;8431;52.458;9.998;2023-11-19T01:49:35;7.10;99.90
16635;DHT22;8431;52.458;9.998;2023-11-19T01:52:02;7.10;99.90
16635;DHT22;8431;52.458;9.998;2023-11-19T01:54:29;7.10;99.90
16635;DHT22;8431;52.458;9.998;2023-11-19T01:56:57;7.10;99.90
16635;DHT22;8431;52.458;9.998;2023-11-19T01:59:31;7.10;99.90
16635;DHT22;8431;52.458;9.998;2023-11-19T02:01:58;7.20;99.90
16635;DHT22;8431;52.458;9.998;2023-11-19T02:04:25;7.20;99.90
16635;DHT22;8431;52.458;9.998;2023-11-19T02:06:54;7.20;99.90
16635;DHT22;8431;52.458;9.998;2023-11-19T02:09:23;7.20;99.90
16635;DHT22;8431;52.458;9.998;2023-11-19T02:11:50;7.20;99.90
16635;DHT22;8431;52.458;9.998;2023-11-19T02:14:17;7.20;99.90
16635;DHT22;8431;52.458;9.998;2023-11-19T02:16:46;7.30;99.90
16635;DHT22;8431;52.458;9.998;2023-11-19T02:19:13;7.30;99.90
16635;DHT22;8431;52.458;9.998;2023-11-19T02:21:40;7.30;99.90
16635;DHT22;8431;52.458;9.998;2023-11-19T02:24:11;7.30;99.90
16635;DHT22;8431;52.458;9.998;2023-11-19T02:26:45;7.30;99.90
16635;DHT22;8431;52.458;9.998;2023-11-19T02:29:15;7.30;99.90
16635;DHT22;8431;52.458;9.998;2023-11-19T02:31:42;7.30;99.90
16635;DHT22;8431;52.458;9.998;2023-11-19T02:34:10;7.40;99.90
16635;DHT22;8431;52.458;9.998;2023-11-19T02:36:38;7.40;99.90
16635;DHT22;8431;52.458;9.998;2023-11-19T02:39:07;7.40;99.90
16635;DHT22;8431;52.458;9.998;2023-11-19T02:41:36;7.40;99.90
16635;DHT22;8431;52.458;9.998;2023-11-19T02:44:05;7.40;99.90
16635;DHT22;8431;52.458;9.998;2023-11-19T02:46:34;7.40;99.90
16635;DHT22;8431;52.458;9.998;2023-11-19T02:49:00;7.40;99.90
16635;DHT22;8431;52.458;9.998;2023-11-19T02:51:27;7.40;99.90
16635;DHT22;8431;52.458;9.998;2023-11-19T02:53:55;7.50;99.90
16635;DHT22;8431;52.458;9.998;2023-11-19T02:56:22;7.50;99.90
16635;DHT22;8431;52.458;9.998;2023-11-19T03:02:15;7.60;99.90
16635;DHT22;8431;52.458;9.998;2023-11-19T03:04:43;7.60;99.90
16635;DHT22;8431;52.458;9.998;2023-11-19T03:07:09;7.60;99.90
16635;DHT22;8431;52.458;9.998;2023-11-19T03:09:36;7.70;99.90
16635;DHT22;8431;52.458;9.998;2023-11-19T03:12:06;7.60;99.90
16635;DHT22;8431;52.458;9.998;2023-11-19T03:14:36;7.70;99.90
16635;DHT22;8431;52.458;9.998;2023-11-19T03:17:03;7.70;99.90
16635;DHT22;8431;52.458;9.998;2023-11-19T03:19:32;7.70;99.90
16635;DHT22;8431;52.458;9.998;2023-11-19T03:21:58;7.70;99.90
16635;DHT22;8431;52.458;9.998;2023-11-19T03:24:25;7.80;99.90
16635;DHT22;8431;52.458;9.998;2023-11-19T03:26:52;7.80;99.90
16635;DHT22;8431;52.458;9.998;2023-11-19T03:29:19;7.80;99.90
16635;DHT22;8431;52.458;9.998;2023-11-19T03:31:46;7.90;99.90
16635;DHT22;8431;52.458;9.998;2023-11-19T03:34:13;7.90;99.90
16635;DHT22;8431;52.458;9.998;2023-11-19T03:36:41;8.00;99.90
16635;DHT22;8431;52.458;9.998;2023-11-19T03:39:08;8.00;99.90
16635;DHT22;8431;52.458;9.998;2023-11-19T03:41:35;8.00;99.90
16635;DHT22;8431;52.458;9.998;2023-11-19T03:44:02;8.00;99.90
16635;DHT22;8431;52.458;9.998;2023-11-19T03:46:29;8.00;99.90
16635;DHT22;8431;52.458;9.998;2023-11-19T03:48:56;8.10;99.90
16635;DHT22;8431;52.458;9.998;2023-11-19T03:51:23;8.10;99.90
16635;DHT22;8431;52.458;9.998;2023-11-19T03:53:51;8.20;99.90
16635;DHT22;8431;52.458;9.998;2023-11-19T03:56:18;8.20;99.90
16635;DHT22;8431;52.458;9.998;2023-11-19T03:58:46;8.20;99.90
16635;DHT22;8431;52.458;9.998;2023-11-19T04:01:13;8.30;99.90
16635;DHT22;8431;52.458;9.998;2023-11-19T04:03:40;8.30;99.90
16635;DHT22;8431;52.458;9.998;2023-11-19T04:06:07;8.30;99.90
16635;DHT22;8431;52.458;9.998;2023-11-19T04:08:35;8.40;99.90
16635;DHT22;8431;52.458;9.998;2023-11-19T04:11:04;8.40;99.90
16635;DHT22;8431;52.458;9.998;2023-11-19T04:13:31;8.40;99.90
16635;DHT22;8431;52.458;9.998;2023-11-19T04:15:58;8.40;99.90
16635;DHT22;8431;52.458;9.998;2023-11-19T04:18:25;8.40;99.90
16635;DHT22;8431;52.458;9.998;2023-11-19T04:20:52;8.50;99.90
16635;DHT22;8431;52.458;9.998;2023-11-19T04:23:19;8.50;99.90
16635;DHT22;8431;52.458;9.998;2023-11-19T04:25:46;8.60;99.90
16635;DHT22;8431;52.458;9.998;2023-11-19T04:28:14;8.60;99.90
16635;DHT22;8431;52.458;9.998;2023-11-19T04:30:41;8.70;99.90
16635;DHT22;8431;52.458;9.998;2023-11-19T04:33:08;8.70;99.90
16635;DHT22;8431;52.458;9.998;2023-11-19T04:35:35;8.70;99.90
16635;DHT22;8431;52.458;9.998;2023-11-19T04:38:02;8.70;99.90
16635;DHT22;8431;52.458;9.998;2023-11-19T04:40:29;8.80;99.90
16635;DHT22;8431;52.458;9.998;2023-11-19T04:42:56;8.80;99.90
16635;DHT22;8431;52.458;9.998;2023-11-19T04:45:24;8.80;99.90
16635;DHT22;8431;52.458;9.998;2023-11-19T04:47:51;8.80;99.90
16635;DHT22;8431;52.458;9.998;2023-11-19T04:50:18;8.80;99.90
16635;DHT22;8431;52.458;9.998;2023-11-19T04:52:45;8.90;99.90
16635;DHT22;8431;52.458;9.998;2023-11-19T04:55:12;8.90;99.90
16635;DHT22;8431;52.458;9.998;2023-11-19T04:57:39;9.00;99.90
16635;DHT22;8431;52.458;9.998;2023-11-19T05:00:07;9.10;99.90
16635;DHT22;8431;52.458;9.998;2023-11-19T05:02:38;9.20;99.90
16635;DHT22;8431;52.458;9.998;2023-11-19T05:05:05;9.20;99.90
16635;DHT22;8431;52.458;9.998;2023-11-19T05:07:32;9.20;99.90
16635;DHT22;8431;52.458;9.998;2023-11-19T05:09:59;9.20;99.90
16635;DHT22;8431;52.458;9.998;2023-11-19T05:12:25;9.30;99.90
16635;DHT22;8431;52.458;9.998;2023-11-19T05:14:52;9.30;99.90
16635;DHT22;8431;52.458;9.998;2023-11-19T05:17:19;9.30;99.90
16635;DHT22;8431;52.458;9.998;2023-11-19T05:19:48;9.30;99.90
16635;DHT22;8431;52.458;9.998;2023-11-19T05:22:15;9.30;99.90
16635;DHT22;8431;52.458;9.998;2023-11-19T05:24:42;9.40;99.90
16635;DHT22;8431;52.458;9.998;2023-11-19T05:27:09;9.40;99.90
16635;DHT22;8431;52.458;9.998;2023-11-19T05:29:38;9.40;99.90
16635;DHT22;8431;52.458;9.998;2023-11-19T05:32:07;9.40;99.90
16635;DHT22;8431;52.458;9.998;2023-11-19T05:34:33;9.40;99.90
16635;DHT22;8431;52.458;9.998;2023-11-19T05:37:02;9.40;99.90
16635;DHT22;8431;52.458;9.998;2023-11-19T05:39:31;9.40;99.90
16635;DHT22;8431;52.458;9.998;2023-11-19T05:41:58;9.40;99.90
16635;DHT22;8431;52.458;9.998;2023-11-19T05:44:24;9.50;99.90
16635;DHT22;8431;52.458;9.998;2023-11-19T05:46:51;9.50;99.90
16635;DHT22;8431;52.458;9.998;2023-11-19T05:49:18;9.50;99.90
16635;DHT22;8431;52.458;9.998;2023-11-19T05:51:45;9.60;99.90
16635;DHT22;8431;52.458;9.998;2023-11-19T05:54:14;9.60;99.90
16635;DHT22;8431;52.458;9.998;2023-11-19T05:56:41;9.60;99.90
16635;DHT22;8431;52.458;9.998;2023-11-19T05:59:08;9.50;99.90
16635;DHT22;8431;52.458;9.998;2023-11-19T06:01:41;9.50;99.90
16635;DHT22;8431;52.458;9.998;2023-11-19T06:04:08;9.50;99.90
16635;DHT22;8431;52.458;9.998;2023-11-19T06:06:35;9.60;99.90
16635;DHT22;8431;52.458;9.998;2023-11-19T06:09:02;9.50;99.90
16635;DHT22;8431;52.458;9.998;2023-11-19T06:11:33;9.50;99.90
16635;DHT22;8431;52.458;9.998;2023-11-19T06:14:01;9.40;99.90
16635;DHT22;8431;52.458;9.998;2023-11-19T06:16:29;9.50;99.90
16635;DHT22;8431;52.458;9.998;2023-11-19T06:18:56;9.30;99.90
16635;DHT22;8431;52.458;9.998;2023-11-19T06:21:23;9.30;99.90
16635;DHT22;8431;52.458;9.998;2023-11-19T06:23:50;9.30;99.90
16635;DHT22;8431;52.458;9.998;2023-11-19T06:26:19;9.30;99.90
16635;DHT22;8431;52.458;9.998;2023-11-19T06:28:48;9.40;99.90
16635;DHT22;8431;52.458;9.998;2023-11-19T06:31:15;9.60;99.90
16635;DHT22;8431;52.458;9.998;2023-11-19T06:33:42;9.80;99.90
16635;DHT22;8431;52.458;9.998;2023-11-19T06:36:09;10.00;99.90
16635;DHT22;8431;52.458;9.998;2023-11-19T06:38:36;10.00;99.90
16635;DHT22;8431;52.458;9.998;2023-11-19T06:41:07;10.10;99.90
16635;DHT22;8431;52.458;9.998;2023-11-19T06:43:34;10.10;99.90
16635;DHT22;8431;52.458;9.998;2023-11-19T06:46:02;10.20;99.90
16635;DHT22;8431;52.458;9.998;2023-11-19T06:48:31;10.10;99.90
16635;DHT22;8431;52.458;9.998;2023-11-19T06:50:58;10.30;99.90
16635;DHT22;8431;52.458;9.998;2023-11-19T06:53:25;10.30;99.90
16635;DHT22;8431;52.458;9.998;2023-11-19T06:55:53;10.40;99.90
16635;DHT22;8431;52.458;9.998;2023-11-19T06:58:20;10.50;99.90
16635;DHT22;8431;52.458;9.998;2023-11-19T07:00:47;10.70;99.90
16635;DHT22;8431;52.458;9.998;2023-11-19T07:03:16;10.80;99.90
16635;DHT22;8431;52.458;9.998;2023-11-19T07:05:43;10.90;99.90
16635;DHT22;8431;52.458;9.998;2023-11-19T07:08:10;10.90;99.90
16635;DHT22;8431;52.458;9.998;2023-11-19T07:10:37;11.10;99.90
16635;DHT22;8431;52.458;9.998;2023-11-19T07:13:04;11.30;99.90
16635;DHT22;8431;52.458;9.998;2023-11-19T07:15:31;11.30;99.90
16635;DHT22;8431;52.458;9.998;2023-11-19T07:17:59;11.50;99.90
16635;DHT22;8431;52.458;9.998;2023-11-19T07:20:27;11.60;99.90
16635;DHT22;8431;52.458;9.998;2023-11-19T07:22:54;11.60;99.90
16635;DHT22;8431;52.458;9.998;2023-11-19T07:25:22;11.80;99.90
16635;DHT22;8431;52.458;9.998;2023-11-19T07:27:51;11.60;99.90
16635;DHT22;8431;52.458;9.998;2023-11-19T07:30:18;11.40;99.90
16635;DHT22;8431;52.458;9.998;2023-11-19T07:32:45;11.50;99.90
16635;DHT22;8431;52.458;9.998;2023-11-19T07:35:12;11.50;99.90
16635;DHT22;8431;52.458;9.998;2023-11-19T07:37:40;11.40;99.90
16635;DHT22;8431;52.458;9.998;2023-11-19T07:40:08;11.40;99.90
16635;DHT22;8431;52.458;9.998;2023-11-19T07:42:37;11.40;99.90
16635;DHT22;8431;52.458;9.998;2023-11-19T07:45:04;11.60;99.90
16635;DHT22;8431;52.458;9.998;2023-11-19T07:47:32;11.50;99.90
16635;DHT22;8431;52.458;9.998;2023-11-19T07:50:00;11.50;99.90
16635;DHT22;8431;52.458;9.998;2023-11-19T07:52:26;11.40;99.90
16635;DHT22;8431;52.458;9.998;2023-11-19T07:54:56;11.60;99.90
16635;DHT22;8431;52.458;9.998;2023-11-19T07:57:22;11.60;99.90
16635;DHT22;8431;52.458;9.998;2023-11-19T07:59:53;11.60;99.90
16635;DHT22;8431;52.458;9.998;2023-11-19T08:02:20;11.50;99.90
16635;DHT22;8431;52.458;9.998;2023-11-19T08:04:47;11.40;99.90
16635;DHT22;8431;52.458;9.998;2023-11-19T08:07:17;11.40;99.90
16635;DHT22;8431;52.458;9.998;2023-11-19T08:09:44;11.50;99.90
16635;DHT22;8431;52.458;9.998;2023-11-19T08:12:12;11.50;99.90
16635;DHT22;8431;52.458;9.998;2023-11-19T08:14:40;11.50;99.90
16635;DHT22;8431;52.458;9.998;2023-11-19T08:17:06;11.50;99.90
16635;DHT22;8431;52.458;9.998;2023-11-19T08:19:33;11.60;99.90
16635;DHT22;8431;52.458;9.998;2023-11-19T08:22:00;11.50;99.90
16635;DHT22;8431;52.458;9.998;2023-11-19T08:24:27;11.70;99.90
16635;DHT22;8431;52.458;9.998;2023-11-19T08:26:55;11.60;99.90
16635;DHT22;8431;52.458;9.998;2023-11-19T08:29:23;11.50;99.90
16635;DHT22;8431;52.458;9.998;2023-11-19T08:31:50;11.50;99.90
16635;DHT22;8431;52.458;9.998;2023-11-19T08:34:17;11.40;99.90
16635;DHT22;8431;52.458;9.998;2023-11-19T08:36:45;11.30;99.90
16635;DHT22;8431;52.458;9.998;2023-11-19T08:39:11;11.50;99.90
16635;DHT22;8431;52.458;9.998;2023-11-19T08:41:41;11.40;99.90
16635;DHT22;8431;52.458;9.998;2023-11-19T08:44:08;11.60;99.90
16635;DHT22;8431;52.458;9.998;2023-11-19T08:46:36;11.60;99.90
16635;DHT22;8431;52.458;9.998;2023-11-19T08:49:03;11.60;99.90
16635;DHT22;8431;52.458;9.998;2023-11-19T08:51:30;11.60;99.90
16635;DHT22;8431;52.458;9.998;2023-11-19T08:53:57;11.60;99.90
16635;DHT22;8431;52.458;9.998;2023-11-19T08:56:24;11.50;99.90
16635;DHT22;8431;52.458;9.998;2023-11-19T08:58:58;11.40;99.90
16635;DHT22;8431;52.458;9.998;2023-11-19T09:01:25;11.40;99.90
16635;DHT22;8431;52.458;9.998;2023-11-19T09:03:54;11.50;99.90
16635;DHT22;8431;52.458;9.998;2023-11-19T09:06:23;11.50;99.90
16635;DHT22;8431;52.458;9.998;2023-11-19T09:08:53;11.50;99.90
16635;DHT22;8431;52.458;9.998;2023-11-19T09:11:26;11.50;99.90
16635;DHT22;8431;52.458;9.998;2023-11-19T09:13:53;11.40;99.90
16635;DHT22;8431;52.458;9.998;2023-11-19T09:16:20;11.30;99.90
16635;DHT22;8431;52.458;9.998;2023-11-19T09:18:47;11.70;99.90
16635;DHT22;8431;52.458;9.998;2023-11-19T09:21:16;11.50;99.90
16635;DHT22;8431;52.458;9.998;2023-11-19T09:23:43;11.50;99.90
16635;DHT22;8431;52.458;9.998;2023-11-19T09:26:10;11.50;99.90
16635;DHT22;8431;52.458;9.998;2023-11-19T09:28:37;11.50;99.90
16635;DHT22;8431;52.458;9.998;2023-11-19T09:31:18;11.70;99.90
16635;DHT22;8431;52.458;9.998;2023-11-19T09:33:45;11.80;99.90
16635;DHT22;8431;52.458;9.998;2023-11-19T09:36:12;11.90;99.90
16635;DHT22;8431;52.458;9.998;2023-11-19T09:38:42;11.80;99.90
16635;DHT22;8431;52.458;9.998;2023-11-19T09:41:10;12.00;99.90
16635;DHT22;8431;52.458;9.998;2023-11-19T09:43:39;12.10;99.90
16635;DHT22;8431;52.458;9.998;2023-11-19T09:46:08;12.00;99.90
16635;DHT22;8431;52.458;9.998;2023-11-19T09:48:37;12.00;99.90
16635;DHT22;8431;52.458;9.998;2023-11-19T09:51:10;12.00;99.90
16635;DHT22;8431;52.458;9.998;2023-11-19T09:53:41;12.00;99.90
16635;DHT22;8431;52.458;9.998;2023-11-19T09:56:08;12.00;99.90
16635;DHT22;8431;52.458;9.998;2023-11-19T09:58:41;12.10;99.90
16635;DHT22;8431;52.458;9.998;2023-11-19T10:01:08;12.10;99.90
16635;DHT22;8431;52.458;9.998;2023-11-19T10:03:38;12.10;99.90
16635;DHT22;8431;52.458;9.998;2023-11-19T10:06:10;12.30;99.90
16635;DHT22;8431;52.458;9.998;2023-11-19T10:08:37;12.30;99.90
16635;DHT22;8431;52.458;9.998;2023-11-19T10:11:06;12.40;99.90
16635;DHT22;8431;52.458;9.998;2023-11-19T10:13:35;12.40;99.90
16635;DHT22;8431;52.458;9.998;2023-11-19T10:16:07;12.50;99.90
16635;DHT22;8431;52.458;9.998;2023-11-19T10:18:53;12.50;99.90
16635;DHT22;8431;52.458;9.998;2023-11-19T10:21:25;12.50;99.90
16635;DHT22;8431;52.458;9.998;2023-11-19T10:23:54;12.50;99.90
16635;DHT22;8431;52.458;9.998;2023-11-19T10:26:24;12.40;99.90
16635;DHT22;8431;52.458;9.998;2023-11-19T10:28:53;12.40;99.90
16635;DHT22;8431;52.458;9.998;2023-11-19T10:31:22;12.30;99.90
16635;DHT22;8431;52.458;9.998;2023-11-19T10:33:50;12.40;99.90
16635;DHT22;8431;52.458;9.998;2023-11-19T10:36:20;12.40;99.90
16635;DHT22;8431;52.458;9.998;2023-11-19T10:38:53;12.60;99.90
16635;DHT22;8431;52.458;9.998;2023-11-19T10:41:28;12.60;99.90
16635;DHT22;8431;52.458;9.998;2023-11-19T10:43:56;12.80;99.90
16635;DHT22;8431;52.458;9.998;2023-11-19T10:46:23;12.80;99.90
16635;DHT22;8431;52.458;9.998;2023-11-19T10:49:02;12.70;99.90
16635;DHT22;8431;52.458;9.998;2023-11-19T10:51:29;12.80;99.90
16635;DHT22;8431;52.458;9.998;2023-11-19T10:54:01;12.80;99.90
16635;DHT22;8431;52.458;9.998;2023-11-19T10:56:30;12.80;99.90
16635;DHT22;8431;52.458;9.998;2023-11-19T10:58:59;12.80;99.90
16635;DHT22;8431;52.458;9.998;2023-11-19T11:01:29;12.80;99.90
16635;DHT22;8431;52.458;9.998;2023-11-19T11:04:00;12.80;99.90
16635;DHT22;8431;52.458;9.998;2023-11-19T11:06:27;12.80;99.90
16635;DHT22;8431;52.458;9.998;2023-11-19T11:08:55;12.90;99.90
16635;DHT22;8431;52.458;9.998;2023-11-19T11:11:22;12.80;99.90
16635;DHT22;8431;52.458;9.998;2023-11-19T11:13:51;12.70;99.90
16635;DHT22;8431;52.458;9.998;2023-11-19T11:16:20;12.80;99.90
16635;DHT22;8431;52.458;9.998;2023-11-19T11:18:49;12.60;99.90
16635;DHT22;8431;52.458;9.998;2023-11-19T11:21:22;12.50;99.90
16635;DHT22;8431;52.458;9.998;2023-11-19T11:24:12;12.50;99.90
16635;DHT22;8431;52.458;9.998;2023-11-19T11:27:01;12.40;99.90
16635;DHT22;8431;52.458;9.998;2023-11-19T11:29:38;12.40;99.90
16635;DHT22;8431;52.458;9.998;2023-11-19T11:32:16;12.50;99.90
16635;DHT22;8431;52.458;9.998;2023-11-19T11:35:24;12.60;99.90
16635;DHT22;8431;52.458;9.998;2023-11-19T11:38:00;12.50;99.90
16635;DHT22;8431;52.458;9.998;2023-11-19T11:40:27;12.50;99.90
16635;DHT22;8431;52.458;9.998;2023-11-19T11:42:54;12.50;99.90
16635;DHT22;8431;52.458;9.998;2023-11-19T11:45:35;12.50;99.90
16635;DHT22;8431;52.458;9.998;2023-11-19T11:48:14;12.50;99.90
16635;DHT22;8431;52.458;9.998;2023-11-19T11:50:53;12.60;99.90
16635;DHT22;8431;52.458;9.998;2023-11-19T11:53:21;12.50;99.90
16635;DHT22;8431;52.458;9.998;2023-11-19T11:55:58;12.60;99.90
16635;DHT22;8431;52.458;9.998;2023-11-19T11:58:31;12.60;99.90
16635;DHT22;8431;52.458;9.998;2023-11-19T12:01:02;12.60;99.90
16635;DHT22;8431;52.458;9.998;2023-11-19T12:03:33;12.60;99.90
16635;DHT22;8431;52.458;9.998;2023-11-19T12:06:00;12.60;99.90
16635;DHT22;8431;52.458;9.998;2023-11-19T12:08:29;12.50;99.90
16635;DHT22;8431;52.458;9.998;2023-11-19T12:10:57;12.40;99.90
16635;DHT22;8431;52.458;9.998;2023-11-19T12:13:54;12.20;99.90
16635;DHT22;8431;52.458;9.998;2023-11-19T12:16:33;12.40;99.90
16635;DHT22;8431;52.458;9.998;2023-11-19T12:19:03;12.50;99.90
16635;DHT22;8431;52.458;9.998;2023-11-19T12:21:31;12.50;99.90
16635;DHT22;8431;52.458;9.998;2023-11-19T12:23:59;12.60;99.90
16635;DHT22;8431;52.458;9.998;2023-11-19T12:26:33;12.70;99.90
